sensor_id;sensor_type;location;lat;lon;timestamp;P1;durP1;ratioP1;P2;durP2;ratioP2
22967;SDS011;11650;48.106;-1.696;2024-03-23T00:55:08;18.53;;;3.70;;
22967;SDS011;11650;48.106;-1.696;2024-03-23T00:57:33;16.87;;;3.10;;
22967;SDS011;11650;48.106;-1.696;2024-03-23T00:59:59;24.97;;;4.03;;
22967;SDS011;11650;48.106;-1.696;2024-03-23T01:02:25;24.20;;;4.17;;
22967;SDS011;11650;48.106;-1.696;2024-03-23T01:04:51;20.67;;;3.37;;
22967;SDS011;11650;48.106;-1.696;2024-03-23T01:07:16;19.33;;;3.60;;
22967;SDS011;11650;48.106;-1.696;2024-03-23T01:09:42;20.73;;;3.33;;
22967;SDS011;11650;48.106;-1.696;2024-03-23T01:12:07;23.30;;;4.20;;
22967;SDS011;11650;48.106;-1.696;2024-03-23T01:14:33;25.53;;;3.70;;
22967;SDS011;11650;48.106;-1.696;2024-03-23T01:17:00;15.90;;;3.73;;
22967;SDS011;11650;48.106;-1.696;2024-03-23T01:19:26;24.53;;;3.90;;
22967;SDS011;11650;48.106;-1.696;2024-03-23T01:21:52;20.40;;;4.00;;
22967;SDS011;11650;48.106;-1.696;2024-03-23T01:24:18;19.33;;;3.83;;
22967;SDS011;11650;48.106;-1.696;2024-03-23T01:26:43;21.40;;;3.60;;
22967;SDS011;11650;48.106;-1.696;2024-03-23T01:29:09;23.60;;;3.27;;
22967;SDS011;11650;48.106;-1.696;2024-03-23T01:31:34;16.07;;;3.67;;
22967;SDS011;11650;48.106;-1.696;2024-03-23T01:34:00;22.63;;;4.20;;
22967;SDS011;11650;48.106;-1.696;2024-03-23T01:36:26;24.67;;;3.80;;
22967;SDS011;11650;48.106;-1.696;2024-03-23T01:38:51;22.63;;;3.80;;
22967;SDS011;11650;48.106;-1.696;2024-03-23T01:41:17;16.43;;;3.20;;
22967;SDS011;11650;48.106;-1.696;2024-03-23T01:43:43;17.97;;;2.83;;
22967;SDS011;11650;48.106;-1.696;2024-03-23T01:46:08;21.07;;;3.63;;
22967;SDS011;11650;48.106;-1.696;2024-03-23T01:48:34;18.20;;;3.37;;
22967;SDS011;11650;48.106;-1.696;2024-03-23T01:50:59;20.03;;;3.47;;
22967;SDS011;11650;48.106;-1.696;2024-03-23T01:53:25;22.83;;;4.27;;
22967;SDS011;11650;48.106;-1.696;2024-03-23T01:55:51;21.50;;;3.17;;
22967;SDS011;11650;48.106;-1.696;2024-03-23T01:58:16;14.87;;;2.80;;
22967;SDS011;11650;48.106;-1.696;2024-03-23T02:00:42;22.30;;;3.70;;
22967;SDS011;11650;48.106;-1.696;2024-03-23T02:03:26;16.73;;;3.03;;
22967;SDS011;11650;48.106;-1.696;2024-03-23T02:05:53;23.67;;;3.80;;
22967;SDS011;11650;48.106;-1.696;2024-03-23T02:08:23;21.80;;;3.23;;
22967;SDS011;11650;48.106;-1.696;2024-03-23T02:10:49;17.07;;;2.77;;
22967;SDS011;11650;48.106;-1.696;2024-03-23T02:13:16;21.13;;;3.40;;
22967;SDS011;11650;48.106;-1.696;2024-03-23T02:15:43;18.23;;;2.70;;
22967;SDS011;11650;48.106;-1.696;2024-03-23T02:18:09;18.03;;;2.90;;
22967;SDS011;11650;48.106;-1.696;2024-03-23T02:20:36;18.07;;;3.60;;
22967;SDS011;11650;48.106;-1.696;2024-03-23T02:23:02;16.77;;;2.80;;
22967;SDS011;11650;48.106;-1.696;2024-03-23T02:25:31;13.23;;;2.67;;
22967;SDS011;11650;48.106;-1.696;2024-03-23T02:27:57;18.97;;;3.03;;
22967;SDS011;11650;48.106;-1.696;2024-03-23T02:30:24;20.13;;;3.00;;
22967;SDS011;11650;48.106;-1.696;2024-03-23T02:32:50;16.10;;;3.00;;
22967;SDS011;11650;48.106;-1.696;2024-03-23T02:35:16;23.60;;;3.23;;
22967;SDS011;11650;48.106;-1.696;2024-03-23T02:37:41;20.00;;;3.17;;
22967;SDS011;11650;48.106;-1.696;2024-03-23T02:40:07;17.43;;;2.57;;
22967;SDS011;11650;48.106;-1.696;2024-03-23T02:42:33;17.83;;;3.83;;
22967;SDS011;11650;48.106;-1.696;2024-03-23T02:44:58;25.87;;;3.23;;
22967;SDS011;11650;48.106;-1.696;2024-03-23T02:47:24;18.27;;;2.70;;
22967;SDS011;11650;48.106;-1.696;2024-03-23T02:49:50;23.00;;;3.37;;
22967;SDS011;11650;48.106;-1.696;2024-03-23T02:52:15;15.90;;;2.70;;
22967;SDS011;11650;48.106;-1.696;2024-03-23T02:54:41;13.10;;;2.60;;
22967;SDS011;11650;48.106;-1.696;2024-03-23T02:57:09;17.43;;;2.73;;
22967;SDS011;11650;48.106;-1.696;2024-03-23T02:59:35;18.57;;;3.23;;
22967;SDS011;11650;48.106;-1.696;2024-03-23T03:02:01;18.23;;;3.10;;
22967;SDS011;11650;48.106;-1.696;2024-03-23T03:04:26;17.23;;;2.93;;
22967;SDS011;11650;48.106;-1.696;2024-03-23T03:06:52;18.60;;;3.10;;
22967;SDS011;11650;48.106;-1.696;2024-03-23T03:09:18;15.40;;;2.53;;
22967;SDS011;11650;48.106;-1.696;2024-03-23T03:11:43;19.30;;;2.83;;
22967;SDS011;11650;48.106;-1.696;2024-03-23T03:14:09;16.00;;;3.07;;
22967;SDS011;11650;48.106;-1.696;2024-03-23T03:16:35;13.33;;;2.57;;
22967;SDS011;11650;48.106;-1.696;2024-03-23T03:19:00;16.77;;;3.03;;
22967;SDS011;11650;48.106;-1.696;2024-03-23T03:21:26;17.03;;;3.17;;
22967;SDS011;11650;48.106;-1.696;2024-03-23T03:23:52;18.00;;;2.90;;
22967;SDS011;11650;48.106;-1.696;2024-03-23T03:26:17;21.83;;;3.10;;
22967;SDS011;11650;48.106;-1.696;2024-03-23T03:28:43;16.60;;;3.03;;
22967;SDS011;11650;48.106;-1.696;2024-03-23T03:31:14;18.90;;;2.50;;
22967;SDS011;11650;48.106;-1.696;2024-03-23T03:33:40;19.97;;;2.53;;
22967;SDS011;11650;48.106;-1.696;2024-03-23T03:36:06;12.97;;;2.90;;
22967;SDS011;11650;48.106;-1.696;2024-03-23T03:38:31;22.53;;;3.17;;
22967;SDS011;11650;48.106;-1.696;2024-03-23T03:40:57;21.00;;;2.57;;
22967;SDS011;11650;48.106;-1.696;2024-03-23T03:43:24;20.23;;;2.73;;
22967;SDS011;11650;48.106;-1.696;2024-03-23T03:45:56;13.63;;;2.47;;
22967;SDS011;11650;48.106;-1.696;2024-03-23T03:48:22;17.87;;;2.50;;
22967;SDS011;11650;48.106;-1.696;2024-03-23T03:50:48;13.63;;;2.70;;
22967;SDS011;11650;48.106;-1.696;2024-03-23T03:53:14;17.53;;;2.63;;
22967;SDS011;11650;48.106;-1.696;2024-03-23T03:55:40;14.00;;;2.10;;
22967;SDS011;11650;48.106;-1.696;2024-03-23T03:58:06;10.20;;;2.13;;
22967;SDS011;11650;48.106;-1.696;2024-03-23T04:00:31;11.50;;;2.33;;
22967;SDS011;11650;48.106;-1.696;2024-03-23T04:02:57;14.60;;;2.43;;
22967;SDS011;11650;48.106;-1.696;2024-03-23T04:05:23;14.60;;;2.30;;
22967;SDS011;11650;48.106;-1.696;2024-03-23T04:07:49;10.77;;;2.13;;
22967;SDS011;11650;48.106;-1.696;2024-03-23T04:10:14;10.03;;;2.07;;
22967;SDS011;11650;48.106;-1.696;2024-03-23T04:12:43;8.47;;;2.03;;
22967;SDS011;11650;48.106;-1.696;2024-03-23T04:15:10;15.43;;;2.40;;
22967;SDS011;11650;48.106;-1.696;2024-03-23T04:17:36;13.47;;;2.90;;
22967;SDS011;11650;48.106;-1.696;2024-03-23T04:20:02;15.47;;;2.43;;
22967;SDS011;11650;48.106;-1.696;2024-03-23T04:22:30;18.20;;;3.07;;
22967;SDS011;11650;48.106;-1.696;2024-03-23T04:24:56;20.63;;;2.63;;
22967;SDS011;11650;48.106;-1.696;2024-03-23T04:27:25;15.13;;;2.60;;
22967;SDS011;11650;48.106;-1.696;2024-03-23T04:29:50;16.33;;;2.77;;
22967;SDS011;11650;48.106;-1.696;2024-03-23T04:32:16;18.50;;;2.87;;
22967;SDS011;11650;48.106;-1.696;2024-03-23T04:34:43;16.27;;;2.63;;
22967;SDS011;11650;48.106;-1.696;2024-03-23T04:37:09;16.87;;;2.70;;
22967;SDS011;11650;48.106;-1.696;2024-03-23T04:39:35;18.27;;;2.73;;
22967;SDS011;11650;48.106;-1.696;2024-03-23T04:42:02;16.47;;;2.63;;
22967;SDS011;11650;48.106;-1.696;2024-03-23T04:44:28;19.43;;;2.90;;
22967;SDS011;11650;48.106;-1.696;2024-03-23T04:46:54;14.97;;;2.63;;
22967;SDS011;11650;48.106;-1.696;2024-03-23T04:49:20;13.97;;;2.80;;
22967;SDS011;11650;48.106;-1.696;2024-03-23T04:51:45;19.03;;;2.77;;
22967;SDS011;11650;48.106;-1.696;2024-03-23T04:54:14;10.33;;;2.00;;
22967;SDS011;11650;48.106;-1.696;2024-03-23T04:56:40;8.97;;;2.10;;
22967;SDS011;11650;48.106;-1.696;2024-03-23T04:59:06;21.17;;;2.87;;
22967;SDS011;11650;48.106;-1.696;2024-03-23T05:01:31;14.77;;;2.10;;
22967;SDS011;11650;48.106;-1.696;2024-03-23T05:03:57;10.60;;;2.00;;
22967;SDS011;11650;48.106;-1.696;2024-03-23T05:06:23;16.33;;;2.20;;
22967;SDS011;11650;48.106;-1.696;2024-03-23T05:08:50;15.70;;;2.23;;
22967;SDS011;11650;48.106;-1.696;2024-03-23T05:11:18;9.17;;;2.03;;
22967;SDS011;11650;48.106;-1.696;2024-03-23T05:13:44;13.27;;;1.83;;
22967;SDS011;11650;48.106;-1.696;2024-03-23T05:16:10;9.17;;;2.00;;
22967;SDS011;11650;48.106;-1.696;2024-03-23T05:18:35;13.37;;;1.70;;
22967;SDS011;11650;48.106;-1.696;2024-03-23T05:21:01;11.73;;;1.83;;
22967;SDS011;11650;48.106;-1.696;2024-03-23T05:23:28;9.17;;;1.90;;
22967;SDS011;11650;48.106;-1.696;2024-03-23T05:25:54;13.20;;;2.20;;
22967;SDS011;11650;48.106;-1.696;2024-03-23T05:28:20;12.03;;;2.07;;
22967;SDS011;11650;48.106;-1.696;2024-03-23T05:30:50;9.57;;;2.10;;
22967;SDS011;11650;48.106;-1.696;2024-03-23T05:33:19;7.73;;;1.80;;
22967;SDS011;11650;48.106;-1.696;2024-03-23T05:35:45;11.73;;;1.93;;
22967;SDS011;11650;48.106;-1.696;2024-03-23T05:38:12;10.17;;;1.73;;
22967;SDS011;11650;48.106;-1.696;2024-03-23T05:40:38;9.57;;;1.70;;
22967;SDS011;11650;48.106;-1.696;2024-03-23T05:43:05;10.13;;;1.80;;
22967;SDS011;11650;48.106;-1.696;2024-03-23T05:45:31;8.67;;;1.93;;
22967;SDS011;11650;48.106;-1.696;2024-03-23T05:47:57;13.70;;;2.10;;
22967;SDS011;11650;48.106;-1.696;2024-03-23T05:50:23;7.63;;;1.63;;
22967;SDS011;11650;48.106;-1.696;2024-03-23T05:52:49;7.77;;;1.77;;
22967;SDS011;11650;48.106;-1.696;2024-03-23T05:55:15;6.20;;;1.60;;
22967;SDS011;11650;48.106;-1.696;2024-03-23T05:57:41;11.93;;;1.73;;
22967;SDS011;11650;48.106;-1.696;2024-03-23T06:00:06;11.87;;;1.70;;
22967;SDS011;11650;48.106;-1.696;2024-03-23T06:02:41;6.87;;;1.60;;
22967;SDS011;11650;48.106;-1.696;2024-03-23T06:05:09;12.80;;;2.70;;
22967;SDS011;11650;48.106;-1.696;2024-03-23T06:07:38;9.63;;;1.80;;
22967;SDS011;11650;48.106;-1.696;2024-03-23T06:10:05;12.20;;;1.73;;
22967;SDS011;11650;48.106;-1.696;2024-03-23T06:12:31;10.77;;;2.07;;
22967;SDS011;11650;48.106;-1.696;2024-03-23T06:14:57;10.70;;;1.87;;
22967;SDS011;11650;48.106;-1.696;2024-03-23T06:17:23;9.07;;;1.90;;
22967;SDS011;11650;48.106;-1.696;2024-03-23T06:19:49;8.53;;;1.70;;
22967;SDS011;11650;48.106;-1.696;2024-03-23T06:22:14;8.83;;;1.67;;
22967;SDS011;11650;48.106;-1.696;2024-03-23T06:24:40;12.83;;;1.70;;
22967;SDS011;11650;48.106;-1.696;2024-03-23T06:27:06;7.13;;;1.63;;
22967;SDS011;11650;48.106;-1.696;2024-03-23T06:29:32;15.83;;;2.40;;
22967;SDS011;11650;48.106;-1.696;2024-03-23T06:31:57;10.80;;;1.50;;
22967;SDS011;11650;48.106;-1.696;2024-03-23T06:34:23;9.30;;;2.47;;
22967;SDS011;11650;48.106;-1.696;2024-03-23T06:36:49;6.60;;;1.83;;
22967;SDS011;11650;48.106;-1.696;2024-03-23T06:39:15;10.63;;;2.23;;
22967;SDS011;11650;48.106;-1.696;2024-03-23T06:41:52;10.67;;;2.07;;
22967;SDS011;11650;48.106;-1.696;2024-03-23T06:44:18;13.03;;;2.07;;
22967;SDS011;11650;48.106;-1.696;2024-03-23T06:46:44;14.03;;;2.27;;
22967;SDS011;11650;48.106;-1.696;2024-03-23T06:49:11;11.67;;;1.83;;
22967;SDS011;11650;48.106;-1.696;2024-03-23T06:51:37;13.57;;;2.33;;
22967;SDS011;11650;48.106;-1.696;2024-03-23T06:54:03;19.37;;;2.63;;
22967;SDS011;11650;48.106;-1.696;2024-03-23T06:56:29;11.23;;;1.97;;
22967;SDS011;11650;48.106;-1.696;2024-03-23T06:58:55;10.10;;;1.67;;
22967;SDS011;11650;48.106;-1.696;2024-03-23T07:01:21;15.63;;;2.40;;
22967;SDS011;11650;48.106;-1.696;2024-03-23T07:03:47;6.83;;;1.40;;
22967;SDS011;11650;48.106;-1.696;2024-03-23T07:06:13;13.53;;;2.20;;
22967;SDS011;11650;48.106;-1.696;2024-03-23T07:08:38;14.00;;;2.40;;
22967;SDS011;11650;48.106;-1.696;2024-03-23T07:11:04;12.93;;;2.37;;
22967;SDS011;11650;48.106;-1.696;2024-03-23T07:13:30;10.43;;;1.70;;
22967;SDS011;11650;48.106;-1.696;2024-03-23T07:15:56;9.73;;;1.63;;
22967;SDS011;11650;48.106;-1.696;2024-03-23T07:18:22;13.00;;;1.93;;
22967;SDS011;11650;48.106;-1.696;2024-03-23T07:20:57;13.30;;;2.73;;
22967;SDS011;11650;48.106;-1.696;2024-03-23T07:23:26;11.23;;;2.30;;
22967;SDS011;11650;48.106;-1.696;2024-03-23T07:25:58;17.13;;;2.60;;
22967;SDS011;11650;48.106;-1.696;2024-03-23T07:28:24;12.37;;;2.67;;
22967;SDS011;11650;48.106;-1.696;2024-03-23T07:31:01;7.43;;;1.73;;
22967;SDS011;11650;48.106;-1.696;2024-03-23T07:33:30;15.50;;;2.20;;
22967;SDS011;11650;48.106;-1.696;2024-03-23T07:35:56;11.30;;;2.03;;
22967;SDS011;11650;48.106;-1.696;2024-03-23T07:38:21;13.60;;;2.10;;
22967;SDS011;11650;48.106;-1.696;2024-03-23T07:40:48;18.67;;;2.33;;
22967;SDS011;11650;48.106;-1.696;2024-03-23T07:43:20;14.57;;;2.03;;
22967;SDS011;11650;48.106;-1.696;2024-03-23T07:45:52;8.63;;;2.03;;
22967;SDS011;11650;48.106;-1.696;2024-03-23T07:48:21;17.93;;;2.83;;
22967;SDS011;11650;48.106;-1.696;2024-03-23T07:51:03;9.17;;;1.97;;
22967;SDS011;11650;48.106;-1.696;2024-03-23T07:53:29;16.47;;;2.33;;
22967;SDS011;11650;48.106;-1.696;2024-03-23T07:55:57;9.63;;;1.93;;
22967;SDS011;11650;48.106;-1.696;2024-03-23T07:58:27;11.27;;;1.90;;
22967;SDS011;11650;48.106;-1.696;2024-03-23T08:00:53;15.60;;;2.33;;
22967;SDS011;11650;48.106;-1.696;2024-03-23T08:03:19;13.43;;;2.53;;
22967;SDS011;11650;48.106;-1.696;2024-03-23T08:05:45;8.80;;;2.10;;
22967;SDS011;11650;48.106;-1.696;2024-03-23T08:08:11;15.03;;;2.10;;
22967;SDS011;11650;48.106;-1.696;2024-03-23T08:10:37;12.83;;;2.27;;
22967;SDS011;11650;48.106;-1.696;2024-03-23T08:13:15;13.97;;;1.93;;
22967;SDS011;11650;48.106;-1.696;2024-03-23T08:15:41;11.10;;;2.20;;
22967;SDS011;11650;48.106;-1.696;2024-03-23T08:18:08;11.87;;;2.33;;
22967;SDS011;11650;48.106;-1.696;2024-03-23T08:20:34;19.00;;;2.47;;
22967;SDS011;11650;48.106;-1.696;2024-03-23T08:23:00;15.47;;;1.87;;
22967;SDS011;11650;48.106;-1.696;2024-03-23T08:25:25;17.07;;;2.43;;
22967;SDS011;11650;48.106;-1.696;2024-03-23T08:27:51;8.60;;;1.70;;
22967;SDS011;11650;48.106;-1.696;2024-03-23T08:30:17;10.53;;;1.70;;
22967;SDS011;11650;48.106;-1.696;2024-03-23T08:32:43;12.27;;;2.00;;
22967;SDS011;11650;48.106;-1.696;2024-03-23T08:35:09;11.63;;;2.60;;
22967;SDS011;11650;48.106;-1.696;2024-03-23T08:37:34;11.60;;;2.00;;
22967;SDS011;11650;48.106;-1.696;2024-03-23T08:40:00;8.63;;;1.97;;
22967;SDS011;11650;48.106;-1.696;2024-03-23T08:42:26;12.97;;;1.80;;
22967;SDS011;11650;48.106;-1.696;2024-03-23T08:44:51;9.40;;;2.07;;
22967;SDS011;11650;48.106;-1.696;2024-03-23T08:47:17;10.73;;;2.07;;
22967;SDS011;11650;48.106;-1.696;2024-03-23T08:49:44;15.20;;;2.37;;
22967;SDS011;11650;48.106;-1.696;2024-03-23T08:52:10;12.97;;;2.43;;
22967;SDS011;11650;48.106;-1.696;2024-03-23T08:54:35;15.47;;;2.07;;
22967;SDS011;11650;48.106;-1.696;2024-03-23T08:57:01;10.57;;;2.30;;
22967;SDS011;11650;48.106;-1.696;2024-03-23T08:59:26;16.10;;;2.67;;
22967;SDS011;11650;48.106;-1.696;2024-03-23T09:01:52;13.33;;;2.20;;
22967;SDS011;11650;48.106;-1.696;2024-03-23T09:04:18;15.13;;;2.10;;
22967;SDS011;11650;48.106;-1.696;2024-03-23T09:06:44;14.03;;;2.73;;
22967;SDS011;11650;48.106;-1.696;2024-03-23T09:09:10;11.33;;;2.40;;
22967;SDS011;11650;48.106;-1.696;2024-03-23T09:11:36;16.90;;;2.43;;
22967;SDS011;11650;48.106;-1.696;2024-03-23T09:14:02;18.40;;;2.50;;
22967;SDS011;11650;48.106;-1.696;2024-03-23T09:16:28;17.53;;;2.33;;
22967;SDS011;11650;48.106;-1.696;2024-03-23T09:18:54;22.07;;;2.90;;
22967;SDS011;11650;48.106;-1.696;2024-03-23T09:21:19;11.17;;;1.70;;
22967;SDS011;11650;48.106;-1.696;2024-03-23T09:23:45;13.83;;;2.23;;
22967;SDS011;11650;48.106;-1.696;2024-03-23T09:26:11;16.80;;;2.70;;
22967;SDS011;11650;48.106;-1.696;2024-03-23T09:28:37;13.37;;;2.20;;
22967;SDS011;11650;48.106;-1.696;2024-03-23T09:31:03;21.93;;;2.60;;
22967;SDS011;11650;48.106;-1.696;2024-03-23T09:33:29;10.30;;;1.80;;
22967;SDS011;11650;48.106;-1.696;2024-03-23T09:35:55;11.97;;;2.57;;
22967;SDS011;11650;48.106;-1.696;2024-03-23T09:38:21;12.60;;;2.57;;
22967;SDS011;11650;48.106;-1.696;2024-03-23T09:40:48;13.43;;;2.27;;
22967;SDS011;11650;48.106;-1.696;2024-03-23T09:43:18;17.73;;;2.63;;
22967;SDS011;11650;48.106;-1.696;2024-03-23T09:45:44;18.07;;;2.50;;
22967;SDS011;11650;48.106;-1.696;2024-03-23T09:48:10;17.07;;;2.93;;
22967;SDS011;11650;48.106;-1.696;2024-03-23T09:50:39;23.47;;;3.47;;
22967;SDS011;11650;48.106;-1.696;2024-03-23T09:53:06;15.13;;;2.63;;
22967;SDS011;11650;48.106;-1.696;2024-03-23T09:55:33;10.73;;;2.70;;
22967;SDS011;11650;48.106;-1.696;2024-03-23T09:58:00;12.77;;;2.70;;
22967;SDS011;11650;48.106;-1.696;2024-03-23T10:00:26;12.97;;;2.40;;
22967;SDS011;11650;48.106;-1.696;2024-03-23T10:02:54;10.67;;;2.10;;
22967;SDS011;11650;48.106;-1.696;2024-03-23T10:05:21;17.47;;;2.97;;
22967;SDS011;11650;48.106;-1.696;2024-03-23T10:07:48;14.50;;;2.30;;
22967;SDS011;11650;48.106;-1.696;2024-03-23T10:10:15;18.60;;;3.03;;
22967;SDS011;11650;48.106;-1.696;2024-03-23T10:12:45;13.57;;;2.33;;
22967;SDS011;11650;48.106;-1.696;2024-03-23T10:15:22;16.07;;;2.90;;
22967;SDS011;11650;48.106;-1.696;2024-03-23T10:17:49;17.67;;;2.50;;
22967;SDS011;11650;48.106;-1.696;2024-03-23T10:20:22;15.90;;;2.37;;
22967;SDS011;11650;48.106;-1.696;2024-03-23T10:22:48;15.30;;;2.23;;
22967;SDS011;11650;48.106;-1.696;2024-03-23T10:25:16;11.20;;;2.53;;
22967;SDS011;11650;48.106;-1.696;2024-03-23T10:27:42;14.97;;;2.30;;
22967;SDS011;11650;48.106;-1.696;2024-03-23T10:32:35;12.30;;;2.67;;
22967;SDS011;11650;48.106;-1.696;2024-03-23T10:37:48;12.23;;;2.00;;
22967;SDS011;11650;48.106;-1.696;2024-03-23T10:40:18;7.37;;;1.57;;
22967;SDS011;11650;48.106;-1.696;2024-03-23T10:42:44;13.43;;;2.17;;
22967;SDS011;11650;48.106;-1.696;2024-03-23T10:45:10;12.20;;;2.30;;
22967;SDS011;11650;48.106;-1.696;2024-03-23T10:47:36;12.17;;;2.27;;
22967;SDS011;11650;48.106;-1.696;2024-03-23T10:50:03;13.80;;;2.33;;
22967;SDS011;11650;48.106;-1.696;2024-03-23T10:52:31;12.43;;;1.90;;
22967;SDS011;11650;48.106;-1.696;2024-03-23T10:55:00;7.60;;;2.03;;
22967;SDS011;11650;48.106;-1.696;2024-03-23T10:57:40;13.80;;;2.47;;
22967;SDS011;11650;48.106;-1.696;2024-03-23T11:00:10;11.40;;;2.00;;
22967;SDS011;11650;48.106;-1.696;2024-03-23T11:02:37;6.47;;;1.70;;
22967;SDS011;11650;48.106;-1.696;2024-03-23T11:05:16;11.70;;;1.93;;
22967;SDS011;11650;48.106;-1.696;2024-03-23T11:07:51;10.43;;;1.90;;
22967;SDS011;11650;48.106;-1.696;2024-03-23T11:12:54;8.43;;;2.00;;
22967;SDS011;11650;48.106;-1.696;2024-03-23T11:15:23;13.10;;;1.80;;
22967;SDS011;11650;48.106;-1.696;2024-03-23T11:18:07;11.80;;;2.20;;
22967;SDS011;11650;48.106;-1.696;2024-03-23T11:20:37;5.53;;;1.40;;
22967;SDS011;11650;48.106;-1.696;2024-03-23T11:23:02;7.00;;;1.40;;
22967;SDS011;11650;48.106;-1.696;2024-03-23T11:25:29;7.80;;;1.87;;
22967;SDS011;11650;48.106;-1.696;2024-03-23T11:27:56;10.13;;;1.80;;
22967;SDS011;11650;48.106;-1.696;2024-03-23T11:32:49;10.27;;;2.00;;
22967;SDS011;11650;48.106;-1.696;2024-03-23T11:43:03;11.73;;;2.37;;
22967;SDS011;11650;48.106;-1.696;2024-03-23T11:45:33;13.83;;;2.00;;
22967;SDS011;11650;48.106;-1.696;2024-03-23T11:50:29;8.87;;;2.00;;
22967;SDS011;11650;48.106;-1.696;2024-03-23T11:53:06;7.57;;;1.67;;
22967;SDS011;11650;48.106;-1.696;2024-03-23T11:55:42;5.67;;;1.07;;
22967;SDS011;11650;48.106;-1.696;2024-03-23T11:58:07;9.27;;;2.40;;
22967;SDS011;11650;48.106;-1.696;2024-03-23T12:00:34;10.90;;;2.33;;
22967;SDS011;11650;48.106;-1.696;2024-03-23T12:03:00;8.73;;;1.93;;
22967;SDS011;11650;48.106;-1.696;2024-03-23T12:05:27;12.27;;;1.80;;
22967;SDS011;11650;48.106;-1.696;2024-03-23T12:07:52;7.37;;;1.43;;
22967;SDS011;11650;48.106;-1.696;2024-03-23T12:10:21;12.83;;;2.40;;
22967;SDS011;11650;48.106;-1.696;2024-03-23T12:12:58;12.23;;;1.67;;
22967;SDS011;11650;48.106;-1.696;2024-03-23T12:15:25;9.30;;;1.90;;
22967;SDS011;11650;48.106;-1.696;2024-03-23T12:17:51;9.57;;;1.80;;
22967;SDS011;11650;48.106;-1.696;2024-03-23T12:20:16;8.20;;;2.00;;
22967;SDS011;11650;48.106;-1.696;2024-03-23T12:22:42;9.67;;;2.00;;
22967;SDS011;11650;48.106;-1.696;2024-03-23T12:25:07;10.93;;;2.10;;
22967;SDS011;11650;48.106;-1.696;2024-03-23T12:27:33;11.30;;;1.80;;
22967;SDS011;11650;48.106;-1.696;2024-03-23T12:29:59;7.53;;;1.83;;
22967;SDS011;11650;48.106;-1.696;2024-03-23T12:32:27;8.43;;;1.67;;
22967;SDS011;11650;48.106;-1.696;2024-03-23T12:34:52;8.10;;;1.93;;
22967;SDS011;11650;48.106;-1.696;2024-03-23T12:37:18;6.50;;;1.80;;
22967;SDS011;11650;48.106;-1.696;2024-03-23T12:39:44;6.47;;;1.50;;
22967;SDS011;11650;48.106;-1.696;2024-03-23T12:42:10;9.67;;;1.40;;
22967;SDS011;11650;48.106;-1.696;2024-03-23T12:44:36;10.53;;;1.77;;
22967;SDS011;11650;48.106;-1.696;2024-03-23T12:47:01;8.47;;;2.17;;
22967;SDS011;11650;48.106;-1.696;2024-03-23T12:49:27;5.93;;;1.40;;
22967;SDS011;11650;48.106;-1.696;2024-03-23T12:51:54;7.60;;;2.07;;
22967;SDS011;11650;48.106;-1.696;2024-03-23T12:54:21;9.03;;;1.90;;
22967;SDS011;11650;48.106;-1.696;2024-03-23T12:56:47;8.10;;;2.03;;
22967;SDS011;11650;48.106;-1.696;2024-03-23T12:59:13;6.90;;;1.70;;
22967;SDS011;11650;48.106;-1.696;2024-03-23T13:01:39;12.77;;;2.40;;
22967;SDS011;11650;48.106;-1.696;2024-03-23T13:04:05;6.97;;;1.60;;
22967;SDS011;11650;48.106;-1.696;2024-03-23T13:06:31;7.20;;;1.30;;
22967;SDS011;11650;48.106;-1.696;2024-03-23T13:09:03;6.73;;;0.90;;
22967;SDS011;11650;48.106;-1.696;2024-03-23T13:11:29;7.40;;;1.40;;
22967;SDS011;11650;48.106;-1.696;2024-03-23T13:13:55;7.73;;;1.30;;
22967;SDS011;11650;48.106;-1.696;2024-03-23T13:16:21;7.50;;;1.20;;
22967;SDS011;11650;48.106;-1.696;2024-03-23T13:18:46;6.13;;;1.20;;
22967;SDS011;11650;48.106;-1.696;2024-03-23T13:21:12;5.70;;;1.30;;
22967;SDS011;11650;48.106;-1.696;2024-03-23T13:23:38;7.33;;;1.40;;
22967;SDS011;11650;48.106;-1.696;2024-03-23T13:26:07;6.43;;;1.53;;
22967;SDS011;11650;48.106;-1.696;2024-03-23T13:28:33;6.17;;;1.60;;
22967;SDS011;11650;48.106;-1.696;2024-03-23T13:30:58;8.43;;;1.80;;
22967;SDS011;11650;48.106;-1.696;2024-03-23T13:33:28;8.40;;;2.10;;
22967;SDS011;11650;48.106;-1.696;2024-03-23T13:35:55;7.63;;;1.60;;
22967;SDS011;11650;48.106;-1.696;2024-03-23T13:38:24;7.57;;;1.70;;
22967;SDS011;11650;48.106;-1.696;2024-03-23T13:40:54;8.23;;;1.30;;
22967;SDS011;11650;48.106;-1.696;2024-03-23T13:43:24;10.17;;;2.73;;
22967;SDS011;11650;48.106;-1.696;2024-03-23T13:45:54;10.63;;;2.50;;
22967;SDS011;11650;48.106;-1.696;2024-03-23T13:48:21;6.80;;;2.33;;
22967;SDS011;11650;48.106;-1.696;2024-03-23T13:50:56;8.03;;;2.53;;
22967;SDS011;11650;48.106;-1.696;2024-03-23T13:53:25;8.20;;;2.13;;
22967;SDS011;11650;48.106;-1.696;2024-03-23T13:55:51;5.10;;;1.60;;
22967;SDS011;11650;48.106;-1.696;2024-03-23T13:58:17;7.50;;;1.60;;
22967;SDS011;11650;48.106;-1.696;2024-03-23T14:00:43;5.97;;;1.30;;
22967;SDS011;11650;48.106;-1.696;2024-03-23T14:03:12;4.63;;;1.30;;
22967;SDS011;11650;48.106;-1.696;2024-03-23T14:05:39;7.33;;;1.57;;
22967;SDS011;11650;48.106;-1.696;2024-03-23T14:08:06;4.23;;;1.10;;
22967;SDS011;11650;48.106;-1.696;2024-03-23T14:10:32;3.97;;;1.13;;
22967;SDS011;11650;48.106;-1.696;2024-03-23T14:12:58;3.90;;;1.33;;
22967;SDS011;11650;48.106;-1.696;2024-03-23T14:15:25;6.07;;;1.60;;
22967;SDS011;11650;48.106;-1.696;2024-03-23T14:17:52;4.37;;;1.20;;
22967;SDS011;11650;48.106;-1.696;2024-03-23T14:20:17;3.80;;;1.10;;
22967;SDS011;11650;48.106;-1.696;2024-03-23T14:22:43;3.50;;;1.13;;
22967;SDS011;11650;48.106;-1.696;2024-03-23T14:25:09;6.13;;;1.50;;
22967;SDS011;11650;48.106;-1.696;2024-03-23T14:27:35;6.07;;;1.47;;
22967;SDS011;11650;48.106;-1.696;2024-03-23T14:30:04;8.57;;;1.20;;
22967;SDS011;11650;48.106;-1.696;2024-03-23T14:32:30;5.00;;;1.10;;
22967;SDS011;11650;48.106;-1.696;2024-03-23T14:35:01;3.60;;;1.10;;
22967;SDS011;11650;48.106;-1.696;2024-03-23T14:37:27;5.07;;;1.07;;
22967;SDS011;11650;48.106;-1.696;2024-03-23T14:39:55;3.03;;;0.97;;
22967;SDS011;11650;48.106;-1.696;2024-03-23T14:42:21;6.00;;;1.10;;
22967;SDS011;11650;48.106;-1.696;2024-03-23T14:44:48;5.60;;;1.30;;
22967;SDS011;11650;48.106;-1.696;2024-03-23T14:47:14;2.60;;;0.97;;
22967;SDS011;11650;48.106;-1.696;2024-03-23T14:49:40;1.87;;;0.80;;
22967;SDS011;11650;48.106;-1.696;2024-03-23T14:52:06;4.63;;;1.00;;
22967;SDS011;11650;48.106;-1.696;2024-03-23T14:54:34;4.67;;;1.10;;
22967;SDS011;11650;48.106;-1.696;2024-03-23T14:57:00;2.53;;;0.80;;
22967;SDS011;11650;48.106;-1.696;2024-03-23T14:59:25;4.77;;;1.10;;
22967;SDS011;11650;48.106;-1.696;2024-03-23T15:01:51;2.87;;;0.87;;
22967;SDS011;11650;48.106;-1.696;2024-03-23T15:04:17;3.63;;;1.10;;
22967;SDS011;11650;48.106;-1.696;2024-03-23T15:06:42;6.23;;;1.00;;
22967;SDS011;11650;48.106;-1.696;2024-03-23T15:09:11;2.80;;;0.80;;
22967;SDS011;11650;48.106;-1.696;2024-03-23T15:11:37;3.33;;;1.13;;
22967;SDS011;11650;48.106;-1.696;2024-03-23T15:14:02;2.87;;;1.23;;
22967;SDS011;11650;48.106;-1.696;2024-03-23T15:16:28;4.60;;;0.93;;
22967;SDS011;11650;48.106;-1.696;2024-03-23T15:18:54;2.97;;;0.80;;
22967;SDS011;11650;48.106;-1.696;2024-03-23T15:21:19;3.87;;;0.90;;
22967;SDS011;11650;48.106;-1.696;2024-03-23T15:23:46;5.90;;;1.03;;
22967;SDS011;11650;48.106;-1.696;2024-03-23T15:26:12;4.27;;;1.10;;
22967;SDS011;11650;48.106;-1.696;2024-03-23T15:28:38;6.73;;;1.60;;
22967;SDS011;11650;48.106;-1.696;2024-03-23T15:31:19;5.60;;;1.40;;
22967;SDS011;11650;48.106;-1.696;2024-03-23T15:33:45;5.40;;;1.20;;
22967;SDS011;11650;48.106;-1.696;2024-03-23T15:36:10;3.17;;;1.10;;
22967;SDS011;11650;48.106;-1.696;2024-03-23T15:38:37;3.73;;;1.00;;